createdAt,value
2023-04-06T00:00:53.153Z,-0.08
2023-04-06T00:03:22.964Z,-0.09
2023-04-06T00:05:55.177Z,-0.11
2023-04-06T00:08:25.160Z,-0.11
2023-04-06T00:10:54.734Z,-0.11
2023-04-06T00:13:23.516Z,-0.08
2023-04-06T00:15:56.156Z,-0.05
2023-04-06T00:18:26.130Z,-0.01
2023-04-06T00:20:56.936Z,0.03
2023-04-06T00:23:28.865Z,0.10
2023-04-06T00:26:24.896Z,0.16
2023-04-06T00:28:57.044Z,0.28
2023-04-06T00:31:27.788Z,0.36
2023-04-06T00:33:57.507Z,0.37
2023-04-06T00:36:27.740Z,0.38
2023-04-06T00:38:58.486Z,0.37
2023-04-06T00:41:30.606Z,0.35
2023-04-06T00:47:42.963Z,0.32
2023-04-06T00:50:12.192Z,0.31
2023-04-06T00:52:42.795Z,0.26
2023-04-06T00:55:12.679Z,0.22
2023-04-06T00:57:44.164Z,0.20
2023-04-06T01:00:14.215Z,0.17
2023-04-06T01:02:46.652Z,0.14
2023-04-06T01:05:20.236Z,0.12
2023-04-06T01:07:58.399Z,0.11
2023-04-06T01:10:30.512Z,0.09
2023-04-06T01:13:08.465Z,0.11
2023-04-06T01:15:53.640Z,0.12
2023-04-06T01:18:29.058Z,0.14
2023-04-06T01:21:09.996Z,0.13
2023-04-06T01:23:39.403Z,0.15
2023-04-06T01:26:08.772Z,0.16
2023-04-06T01:28:38.894Z,0.16
2023-04-06T01:31:19.141Z,0.17
2023-04-06T01:33:52.289Z,0.14
2023-04-06T01:36:24.053Z,0.12
2023-04-06T01:39:00.442Z,0.09
2023-04-06T01:41:35.034Z,0.09
2023-04-06T01:44:04.753Z,0.07
2023-04-06T01:46:36.193Z,0.08
2023-04-06T01:49:06.736Z,0.10
2023-04-06T01:51:41.368Z,0.11
2023-04-06T01:54:14.387Z,0.12
2023-04-06T01:57:05.504Z,0.12
2023-04-06T01:59:41.664Z,0.14
2023-04-06T02:02:18.567Z,0.15
2023-04-06T02:04:57.477Z,0.16
2023-04-06T02:07:28.682Z,0.15
2023-04-06T02:09:58.730Z,0.13
2023-04-06T02:12:35.639Z,0.09
2023-04-06T02:15:06.421Z,0.08
2023-04-06T02:17:35.891Z,0.09
2023-04-06T02:20:10.372Z,0.10
2023-04-06T02:22:40.460Z,0.11
2023-04-06T02:25:10.284Z,0.12
2023-04-06T02:27:39.063Z,0.12
2023-04-06T02:30:11.243Z,0.11
2023-04-06T02:32:40.253Z,0.11
2023-04-06T02:35:13.912Z,0.11
2023-04-06T02:37:44.264Z,0.09
2023-04-06T02:40:15.358Z,0.08
2023-04-06T02:42:44.651Z,0.09
2023-04-06T02:45:15.872Z,0.10
2023-04-06T02:47:48.879Z,0.11
2023-04-06T02:50:19.257Z,0.12
2023-04-06T02:52:55.322Z,0.13
2023-04-06T02:55:26.928Z,0.14
2023-04-06T02:57:58.111Z,0.15
2023-04-06T03:00:32.139Z,0.15
2023-04-06T03:03:04.890Z,0.15
2023-04-06T03:05:34.645Z,0.16
2023-04-06T03:08:06.812Z,0.16
2023-04-06T03:10:44.554Z,0.17
2023-04-06T03:13:14.238Z,0.18
2023-04-06T03:15:53.285Z,0.18
2023-04-06T03:18:28.154Z,0.19
2023-04-06T03:21:00.014Z,0.19
2023-04-06T03:23:40.533Z,0.18
2023-04-06T03:26:10.366Z,0.17
2023-04-06T03:28:40.618Z,0.19
2023-04-06T03:31:09.580Z,0.19
2023-04-06T03:33:58.652Z,0.20
2023-04-06T03:36:39.846Z,0.20
2023-04-06T03:39:08.918Z,0.20
2023-04-06T03:41:40.557Z,0.21
2023-04-06T03:44:22.516Z,0.21
2023-04-06T03:46:53.144Z,0.22
2023-04-06T03:49:24.481Z,0.22
2023-04-06T03:51:54.324Z,0.22
2023-04-06T03:54:26.454Z,0.23
2023-04-06T03:56:56.823Z,0.22
2023-04-06T03:59:29.489Z,0.22
2023-04-06T04:02:00.922Z,0.22
2023-04-06T04:04:31.148Z,0.22
2023-04-06T04:07:00.915Z,0.23
2023-04-06T04:09:29.986Z,0.23
2023-04-06T04:11:58.943Z,0.23
2023-04-06T04:14:29.664Z,0.21
2023-04-06T04:17:05.344Z,0.20
2023-04-06T04:19:34.100Z,0.18
2023-04-06T04:22:06.327Z,0.18
2023-04-06T04:24:37.443Z,0.19
2023-04-06T04:27:10.984Z,0.20
2023-04-06T04:29:41.550Z,0.21
2023-04-06T04:32:13.018Z,0.22
2023-04-06T04:34:42.767Z,0.24
2023-04-06T04:37:15.858Z,0.25
2023-04-06T04:39:57.230Z,0.27
2023-04-06T04:42:26.545Z,0.28
2023-04-06T04:44:57.782Z,0.30
2023-04-06T04:47:35.583Z,0.33
2023-04-06T04:50:06.593Z,0.35
2023-04-06T04:52:39.180Z,0.36
2023-04-06T04:55:24.827Z,0.38
2023-04-06T04:57:58.479Z,0.38
2023-04-06T05:00:47.925Z,0.39
2023-04-06T05:03:24.314Z,0.41
2023-04-06T05:06:05.889Z,0.45
2023-04-06T05:08:37.885Z,0.48
2023-04-06T05:11:08.625Z,0.50
2023-04-06T05:13:40.870Z,0.53
2023-04-06T05:16:14.435Z,0.56
2023-04-06T05:18:43.202Z,0.59
2023-04-06T05:21:13.031Z,0.63
2023-04-06T05:24:30.778Z,0.69
2023-04-06T05:27:01.583Z,0.74
2023-04-06T05:29:32.314Z,0.78
2023-04-06T05:32:07.137Z,0.81
2023-04-06T05:34:36.608Z,0.85
2023-04-06T05:37:08.315Z,0.89
2023-04-06T05:39:38.444Z,0.92
2023-04-06T05:42:09.413Z,0.96
2023-04-06T05:44:51.973Z,1.02
2023-04-06T05:47:20.985Z,1.07
2023-04-06T05:49:54.409Z,1.09
2023-04-06T05:52:30.945Z,1.12
2023-04-06T05:55:02.609Z,1.16
2023-04-06T05:57:33.380Z,1.22
2023-04-06T06:00:02.765Z,1.29
2023-04-06T06:02:43.662Z,1.36
2023-04-06T06:05:18.307Z,1.43
2023-04-06T06:07:51.737Z,1.50
2023-04-06T06:10:23.959Z,1.58
2023-04-06T06:12:55.333Z,1.68
2023-04-06T06:15:26.161Z,1.80
2023-04-06T06:17:55.154Z,1.93
2023-04-06T06:20:24.955Z,2.07
2023-04-06T06:22:54.321Z,2.23
2023-04-06T06:25:28.053Z,2.41
2023-04-06T06:28:01.949Z,2.59
2023-04-06T06:30:32.655Z,2.79
2023-04-06T06:33:03.763Z,3.02
2023-04-06T06:35:33.785Z,3.21
2023-04-06T06:38:07.074Z,3.40
2023-04-06T06:40:36.769Z,3.56
2023-04-06T06:43:08.331Z,3.67
2023-04-06T06:45:57.375Z,3.78
2023-04-06T06:48:28.493Z,3.90
2023-04-06T06:50:57.300Z,3.96
2023-04-06T06:53:27.506Z,4.02
2023-04-06T06:55:57.770Z,4.07
2023-04-06T06:58:26.910Z,4.11
2023-04-06T07:00:59.040Z,4.24
2023-04-06T07:03:29.159Z,4.36
2023-04-06T07:05:58.739Z,4.46
2023-04-06T07:08:31.576Z,4.54
2023-04-06T07:11:02.409Z,4.64
2023-04-06T07:13:32.996Z,4.80
2023-04-06T07:16:07.956Z,5.10
2023-04-06T07:18:37.498Z,5.49
2023-04-06T07:21:09.118Z,5.90
2023-04-06T07:23:40.698Z,6.22
2023-04-06T07:26:39.356Z,6.58
2023-04-06T07:29:08.506Z,7.09
2023-04-06T07:31:38.805Z,7.59
2023-04-06T07:34:09.479Z,8.13
2023-04-06T07:36:39.442Z,8.53
2023-04-06T07:39:10.880Z,9.23
2023-04-06T07:41:41.077Z,9.55
2023-04-06T07:44:11.356Z,9.43
2023-04-06T07:46:41.689Z,9.23
2023-04-06T07:49:13.251Z,8.92
2023-04-06T07:51:42.091Z,8.69
2023-04-06T07:54:11.778Z,8.41
2023-04-06T07:56:42.627Z,8.26
2023-04-06T07:59:12.837Z,8.13
2023-04-06T08:01:43.916Z,7.92
2023-04-06T08:04:15.837Z,7.67
2023-04-06T08:06:45.273Z,7.39
2023-04-06T08:09:14.317Z,7.13
2023-04-06T08:11:46.076Z,6.85
2023-04-06T08:14:15.292Z,6.61
2023-04-06T08:16:45.633Z,6.42
2023-04-06T08:19:14.551Z,6.31
2023-04-06T08:21:43.809Z,6.21
2023-04-06T08:24:14.517Z,6.18
2023-04-06T08:26:44.548Z,6.27
2023-04-06T08:29:14.662Z,6.41
2023-04-06T08:31:46.686Z,6.52
2023-04-06T08:34:18.401Z,6.61
2023-04-06T08:36:48.290Z,6.63
2023-04-06T08:39:18.476Z,6.58
2023-04-06T08:41:48.499Z,6.49
2023-04-06T08:44:18.468Z,6.41
2023-04-06T08:46:48.974Z,6.38
2023-04-06T08:49:20.486Z,6.40
2023-04-06T08:51:50.907Z,6.46
2023-04-06T08:54:20.680Z,6.62
2023-04-06T08:56:51.754Z,6.76
2023-04-06T08:59:22.131Z,6.86
2023-04-06T09:01:53.791Z,6.78
2023-04-06T09:04:23.541Z,6.74
2023-04-06T09:06:53.967Z,6.73
2023-04-06T09:09:26.500Z,6.68
2023-04-06T09:11:56.415Z,6.67
2023-04-06T09:14:36.731Z,6.72
2023-04-06T09:17:07.795Z,6.73
2023-04-06T09:19:48.852Z,6.72
2023-04-06T09:22:19.584Z,6.70
2023-04-06T09:24:56.275Z,6.69
2023-04-06T09:27:32.317Z,6.70
2023-04-06T09:30:08.826Z,6.74
2023-04-06T09:32:50.407Z,6.78
2023-04-06T09:35:24.018Z,6.80
2023-04-06T09:37:53.723Z,6.75
2023-04-06T09:40:23.649Z,6.74
2023-04-06T09:42:53.321Z,6.71
2023-04-06T09:45:23.516Z,6.80
2023-04-06T09:47:55.410Z,6.99
2023-04-06T09:50:26.741Z,7.38
2023-04-06T09:52:56.028Z,7.98
2023-04-06T09:55:29.917Z,8.44
2023-04-06T09:58:04.780Z,8.79
2023-04-06T10:00:37.954Z,9.15
2023-04-06T10:03:27.785Z,9.60
2023-04-06T10:06:02.193Z,10.03
2023-04-06T10:08:33.596Z,10.15
2023-04-06T10:11:05.675Z,10.21
2023-04-06T10:13:35.537Z,10.31
2023-04-06T10:16:08.001Z,10.18
2023-04-06T10:18:38.290Z,10.09
2023-04-06T10:21:12.822Z,10.22
2023-04-06T10:23:43.516Z,10.21
2023-04-06T10:26:17.843Z,10.12
2023-04-06T10:28:48.483Z,10.03
2023-04-06T10:31:26.354Z,9.93
2023-04-06T10:33:58.004Z,9.72
2023-04-06T10:36:28.914Z,9.41
2023-04-06T10:39:01.127Z,9.14
2023-04-06T10:41:36.390Z,8.92
2023-04-06T10:44:07.472Z,8.74
2023-04-06T10:46:38.483Z,8.67
2023-04-06T10:49:15.675Z,8.59
2023-04-06T10:51:47.391Z,8.48
2023-04-06T10:54:18.730Z,8.40
2023-04-06T10:56:49.150Z,8.27
2023-04-06T10:59:23.887Z,8.13
2023-04-06T11:01:53.277Z,7.98
2023-04-06T11:04:22.417Z,7.90
2023-04-06T11:06:53.998Z,7.86
2023-04-06T11:09:27.810Z,7.87
2023-04-06T11:11:59.047Z,7.86
2023-04-06T11:14:28.408Z,7.80
2023-04-06T11:16:59.455Z,7.74
2023-04-06T11:19:29.368Z,7.69
2023-04-06T11:22:08.772Z,7.60
2023-04-06T11:24:38.524Z,7.47
2023-04-06T11:27:07.829Z,7.32
2023-04-06T11:29:39.418Z,7.20
2023-04-06T11:32:10.361Z,7.07
2023-04-06T11:34:42.196Z,6.94
2023-04-06T11:37:13.418Z,6.81
2023-04-06T11:39:53.072Z,6.74
2023-04-06T11:42:25.709Z,6.61
2023-04-06T11:44:55.978Z,6.53
2023-04-06T11:48:18.723Z,6.42
2023-04-06T11:56:16.558Z,6.41
2023-04-06T12:29:05.291Z,7.47
2023-04-06T12:32:34.901Z,7.53
2023-04-06T12:35:40.838Z,7.49
2023-04-06T12:38:54.790Z,7.39
2023-04-06T12:42:19.430Z,7.34
2023-04-06T12:45:43.388Z,7.34
2023-04-06T12:49:12.880Z,7.29
2023-04-06T12:52:47.254Z,7.05
2023-04-06T12:56:28.209Z,6.68
2023-04-06T13:00:01.929Z,6.28
2023-04-06T13:03:39.500Z,6.03
2023-04-06T13:07:16.195Z,5.94
2023-04-06T13:10:43.658Z,5.91
2023-04-06T13:14:13.505Z,5.91
2023-04-06T13:17:46.182Z,5.91
2023-04-06T13:21:48.055Z,5.83
2023-04-06T13:25:23.626Z,5.84
2023-04-06T13:28:50.193Z,5.93
2023-04-06T13:32:22.517Z,5.98
2023-04-06T14:20:32.108Z,6.52
2023-04-06T14:24:09.745Z,6.39
2023-04-06T14:35:36.681Z,6.28
2023-04-06T14:38:59.364Z,6.29
2023-04-06T14:42:36.104Z,6.28
2023-04-06T14:49:31.474Z,6.32
2023-04-06T14:56:59.760Z,6.28
2023-04-06T15:00:31.189Z,6.24
2023-04-06T15:03:50.040Z,6.26
2023-04-06T15:07:23.331Z,6.22
2023-04-06T15:18:20.238Z,6.01
2023-04-06T15:25:40.049Z,5.85
2023-04-06T15:29:08.846Z,5.77
2023-04-06T15:57:53.419Z,5.38
2023-04-06T16:05:24.396Z,5.28
2023-04-06T16:31:20.933Z,4.89
2023-04-06T16:34:55.227Z,4.77
2023-04-06T16:38:41.214Z,4.67
2023-04-06T16:42:17.696Z,4.60
2023-04-06T16:45:55.189Z,4.58
2023-04-06T16:53:48.643Z,4.48
2023-04-06T16:57:25.365Z,4.41
2023-04-06T17:01:02.801Z,4.33
2023-04-06T17:37:28.471Z,4.04
2023-04-06T17:41:00.553Z,4.02
2023-04-06T17:44:32.082Z,4.02
2023-04-06T17:48:02.730Z,3.98
2023-04-06T17:51:34.132Z,3.98
2023-04-06T17:55:11.259Z,3.97
2023-04-06T17:58:40.920Z,3.90
2023-04-06T18:02:10.664Z,3.83
2023-04-06T18:09:41.373Z,3.69
2023-04-06T18:13:17.858Z,3.61
2023-04-06T18:27:15.089Z,3.51
2023-04-06T18:31:03.700Z,3.44
2023-04-06T18:35:10.556Z,3.45
2023-04-06T18:45:27.519Z,3.45
2023-04-06T18:48:51.095Z,3.48
2023-04-06T18:52:26.084Z,3.44
2023-04-06T18:55:56.371Z,3.43
2023-04-06T18:59:27.498Z,3.43
2023-04-06T19:02:58.334Z,3.43
2023-04-06T19:06:22.911Z,3.38
2023-04-06T19:09:47.010Z,3.36
2023-04-06T19:13:18.427Z,3.31
2023-04-06T19:16:45.127Z,3.30
2023-04-06T19:20:10.120Z,3.29
2023-04-06T19:23:33.078Z,3.29
2023-04-06T19:27:01.068Z,3.23
2023-04-06T19:30:33.658Z,3.17
2023-04-06T19:52:55.114Z,2.96
2023-04-06T19:56:24.911Z,2.96
2023-04-06T19:59:55.229Z,2.99
2023-04-06T20:03:17.568Z,3.01
2023-04-06T20:06:47.517Z,3.03
2023-04-06T20:10:18.678Z,3.07
2023-04-06T20:13:42.419Z,3.10
2023-04-06T20:17:17.990Z,3.13
2023-04-06T20:20:47.626Z,3.11
2023-04-06T20:24:18.937Z,3.07
2023-04-06T20:27:42.614Z,3.03
2023-04-06T20:31:18.620Z,3.01
2023-04-06T20:34:48.499Z,2.98
2023-04-06T20:38:24.332Z,2.94
2023-04-06T20:42:02.286Z,2.86
2023-04-06T20:45:27.789Z,2.80
2023-04-06T20:48:57.935Z,2.78
2023-04-06T20:55:53.953Z,2.78
2023-04-06T20:59:27.131Z,2.77
2023-04-06T21:02:57.549Z,2.73
2023-04-06T21:06:34.210Z,2.72
2023-04-06T21:10:07.406Z,2.72
2023-04-06T21:13:37.700Z,2.72
2023-04-06T21:17:07.417Z,2.70
2023-04-06T21:20:38.188Z,2.70
2023-04-06T21:24:07.784Z,2.72
2023-04-06T21:27:38.594Z,2.75
2023-04-06T22:10:00.780Z,3.24
2023-04-06T22:13:34.589Z,3.22
2023-04-06T22:17:05.071Z,3.21
2023-04-06T22:20:38.342Z,3.17
2023-04-06T22:24:09.030Z,3.15
2023-04-06T22:27:31.282Z,3.11
2023-04-06T22:31:04.263Z,3.09
2023-04-06T22:34:36.036Z,3.05
2023-04-06T22:38:10.328Z,3.06
2023-04-06T22:41:40.853Z,3.09
2023-04-06T22:45:03.210Z,3.09
2023-04-06T22:52:00.321Z,3.15
2023-04-06T22:55:29.942Z,3.22
2023-04-06T22:59:03.861Z,3.28
2023-04-06T23:02:41.514Z,3.35
2023-04-06T23:06:17.366Z,3.40
2023-04-06T23:09:42.334Z,3.41
2023-04-06T23:13:02.087Z,3.43
2023-04-06T23:16:22.863Z,3.42
2023-04-06T23:19:46.695Z,3.38
2023-04-06T23:23:18.756Z,3.35
2023-04-06T23:26:37.177Z,3.34
2023-04-06T23:30:08.679Z,3.33
2023-04-06T23:33:39.024Z,3.30
2023-04-06T23:44:06.736Z,3.23
